Latest Weather Observations for St Helens

IDT60801

Issued at 4:35 pm EST Tuesday 29 July 2014 (issued every 30 minutes, with the page automatically refreshed every 10 minutes)

About weather observations | Map of weather stations | Latest weather observations for TAS | Other Formats
Station Details ID: 092120 Name: ST HELENS AERODROME Lat: -41.34 Lon: 148.28 Height: 48.0 m
Data from the previous 72 hours. | See also: Recent months at St Helens
Date/Time
EST
Temp
°C
App
Temp
°C
Dew
Point
Rel
Hum
%
Delta-T
°C
Wind Press
QNH
hPa
Press
MSL
hPa
Rain
since 9 am
mm
Dir
 
Spd
km/h
Gust
km/h
Spd
kts
Gust
kts
29/04:30pm 13.6 7.1 8.9 73 2.4 WNW 33 70 18 38 991.5 - 7.2
29/04:29pm 13.7 7.1 8.5 71 2.6 WNW 33 70 18 38 991.4 - 7.2
29/04:28pm 13.7 7.1 8.5 71 2.6 WNW 33 70 18 38 991.4 - 7.2
29/04:17pm 13.0 7.5 9.1 77 2.0 WNW 28 46 15 25 992.2 - 7.2
29/04:16pm 13.0 7.5 9.1 77 2.0 WNW 28 46 15 25 992.2 - 7.2
29/04:00pm 12.5 7.4 9.1 80 1.7 WNW 26 41 14 22 992.5 - 7.2
29/03:30pm 12.3 6.3 8.6 78 1.8 WNW 30 56 16 30 992.8 - 7.2
29/03:00pm 13.5 8.0 7.5 67 3.0 W 26 48 14 26 992.8 992.9 7.2
29/02:30pm 13.6 7.0 7.6 67 3.0 W 32 57 17 31 993.1 - 7.0
29/02:13pm 13.2 7.5 8.3 72 2.4 WNW 28 57 15 31 993.4 - 7.0
29/02:12pm 13.2 7.5 8.3 72 2.4 WNW 28 57 15 31 993.4 - 7.0
29/02:00pm 12.4 7.8 9.8 84 1.3 NW 24 39 13 21 994.1 - 7.0
29/01:30pm 11.7 7.4 9.3 85 1.2 W 22 57 12 31 994.1 - 5.2
29/01:00pm 11.6 6.3 9.7 88 1.0 NW 28 54 15 29 994.2 - 4.6
29/12:55pm 11.6 6.3 9.7 88 1.0 NW 28 54 15 29 994.4 - 4.0
29/12:30pm 10.8 7.4 9.1 89 0.8 W 17 28 9 15 994.5 - 3.0
29/12:00pm 12.4 9.1 9.6 83 1.4 WSW 17 41 9 22 994.6 994.4 0.6
29/11:30am 14.9 8.7 7.9 63 3.5 WNW 30 59 16 32 993.8 - 0.2
29/11:00am 14.3 8.2 8.3 67 3.0 WNW 30 59 16 32 994.7 - 0.2
29/10:30am 14.1 6.1 8.9 71 2.7 WNW 41 82 22 44 995.0 - 0.2
29/10:22am 13.9 6.3 8.9 72 2.5 WNW 39 80 21 43 994.8 - 0.2
29/10:21am 13.9 6.3 8.9 72 2.5 WNW 39 80 21 43 994.8 - 0.2
29/10:00am 13.0 6.4 10.0 82 1.5 NW 35 59 19 32 995.4 - 0.2
29/09:30am 12.5 5.5 10.0 85 1.3 NW 37 65 20 35 995.9 - 0.2
29/09:00am 12.4 5.8 10.1 86 1.2 NW 35 65 19 35 996.5 996.5 7.6
29/08:30am 12.2 5.7 10.3 88 1.0 NW 35 65 19 35 996.8 - 6.6
29/08:05am 11.8 6.5 10.0 89 0.9 NW 28 50 15 27 997.4 - 6.2
29/08:04am 11.8 6.5 10.0 89 0.9 NW 28 50 15 27 997.4 - 6.2
29/08:00am 11.6 6.7 10.0 90 0.8 NW 26 41 14 22 997.7 - 6.2
29/07:30am 11.7 5.5 9.9 89 0.9 NW 33 61 18 33 998.0 - 4.2
29/07:00am 11.9 6.5 9.6 86 1.2 NW 28 52 15 28 997.8 - 3.6
29/06:32am 11.6 5.8 9.5 87 1.1 NW 30 48 16 26 998.4 - 3.2
29/06:30am 11.6 6.3 9.7 88 1.0 NW 28 46 15 25 998.5 - 3.2
29/06:00am 11.6 5.5 9.9 89 0.9 WNW 32 61 17 33 998.6 998.7 2.8
29/05:30am 12.6 7.0 8.7 77 2.0 WNW 28 52 15 28 997.9 - 2.2
29/05:00am 12.3 6.7 8.8 79 1.8 NW 28 48 15 26 998.4 - 2.2
29/04:32am 12.6 7.0 8.9 78 1.9 NW 28 52 15 28 999.0 - 2.2
29/04:30am 12.4 7.2 8.9 79 1.8 NW 26 52 14 28 999.0 - 2.2
29/04:24am 12.3 6.8 9.0 80 1.7 NW 28 52 15 28 999.1 - 2.2
29/04:00am 11.8 7.3 8.5 80 1.6 NW 22 43 12 23 999.9 - 2.2
29/03:30am 11.4 7.4 8.4 82 1.5 NW 19 35 10 19 1000.6 - 2.2
29/03:00am 11.0 7.0 8.2 83 1.4 NW 19 28 10 15 1001.5 1001.6 2.2
29/02:30am 11.0 6.7 7.9 81 1.5 NW 20 35 11 19 1002.0 - 2.2
29/02:00am 10.8 7.0 9.1 89 0.8 NW 19 33 10 18 1002.7 - 2.2
29/01:30am 11.1 7.2 8.5 84 1.3 W 19 33 10 18 1003.0 - 0.6
29/01:00am 11.2 8.0 8.4 83 1.4 NW 15 28 8 15 1003.4 - 0.4
29/12:30am 11.3 7.5 7.6 78 1.8 NW 17 28 9 15 1003.7 - 0.4
29/12:00am 11.3 7.5 8.9 85 1.2 NW 19 32 10 17 1003.6 1003.8 0.2
 
Date/Time
EST
Temp
°C
App
Temp
°C
Dew
Point
Rel
Hum
%
Delta-T
°C
Wind Press
QNH
hPa
Press
MSL
hPa
Rain
since 9 am
mm
Dir
 
Spd
km/h
Gust
km/h
Spd
kts
Gust
kts
28/11:30pm 12.1 7.5 8.0 76 2.0 NW 22 33 12 18 1004.2 - 0.0
28/11:00pm 12.1 8.0 7.8 75 2.1 W 19 35 10 19 1003.9 - 0.0
28/10:30pm 11.6 8.1 7.3 75 2.1 WNW 15 30 8 16 1004.3 - 0.0
28/10:00pm 11.8 6.9 7.1 73 2.3 NW 22 35 12 19 1004.8 - 0.0
28/09:30pm 11.7 7.4 7.2 74 2.2 NW 19 28 10 15 1005.3 - 0.0
28/09:00pm 11.5 7.2 7.0 74 2.2 NNW 19 30 10 16 1005.7 1005.8 0.0
28/08:30pm 10.5 7.5 7.6 82 1.4 NNW 13 26 7 14 1005.9 - 0.0
28/08:00pm 10.8 6.9 6.9 77 1.9 WNW 17 35 9 19 1005.7 - 0.0
28/07:30pm 12.0 6.5 5.9 66 2.9 NW 24 37 13 20 1005.4 - 0.0
28/07:23pm 12.6 6.5 6.4 66 3.0 NW 28 52 15 28 1005.3 - 0.0
28/07:22pm 12.6 6.5 6.4 66 3.0 NW 28 52 15 28 1005.3 - 0.0
28/07:00pm 12.9 8.6 7.1 68 2.8 NW 19 26 10 14 1005.5 - 0.0
28/06:30pm 12.8 8.4 7.5 70 2.6 W 20 37 11 20 1004.6 - 0.0
28/06:00pm 13.0 9.5 7.2 68 2.8 W 15 32 8 17 1004.4 1004.5 0.0
28/05:30pm 13.0 9.1 7.0 67 2.9 WNW 17 37 9 20 1004.8 - 0.0
28/05:00pm 12.8 9.3 7.0 68 2.8 NW 15 28 8 15 1005.1 - 0.0
28/04:30pm 13.2 10.3 6.3 63 3.3 WNW 11 20 6 11 1005.0 - 0.0
28/04:00pm 14.3 11.5 6.9 61 3.6 WSW 11 20 6 11 1005.2 - 0.0
28/03:30pm 14.4 10.7 8.1 66 3.2 W 17 37 9 20 1005.4 - 0.0
28/03:00pm 15.0 11.3 7.8 62 3.6 WNW 17 32 9 17 1005.4 1005.5 0.0
28/02:30pm 15.0 12.1 8.0 63 3.5 WNW 13 24 7 13 1005.8 - 0.0
28/02:00pm 14.7 11.8 8.2 65 3.3 WSW 13 24 7 13 1005.8 - 0.0
28/01:30pm 14.7 10.7 8.2 65 3.3 WNW 19 33 10 18 1005.8 - 0.0
28/01:00pm 14.9 10.9 8.2 64 3.4 W 19 35 10 19 1006.1 - 0.0
28/12:30pm 14.3 11.0 8.0 66 3.1 WSW 15 32 8 17 1006.8 - 0.0
28/12:00pm 15.0 12.4 7.8 62 3.6 W 11 20 6 11 1007.3 1007.4 0.0
28/11:30am 13.6 10.0 6.9 64 3.2 W 15 30 8 16 1007.9 - 0.0
28/11:00am 13.4 9.6 7.4 67 2.9 W 17 30 9 16 1008.6 - 0.0
28/10:30am 13.7 9.2 7.0 64 3.3 WNW 20 35 11 19 1008.9 - 0.0
28/10:00am 13.7 10.1 8.5 71 2.6 W 17 37 9 20 1008.7 - 0.0
28/09:30am 14.3 9.7 8.3 67 3.0 WNW 22 50 12 27 1008.6 - 0.0
28/09:00am 13.9 10.3 8.5 70 2.7 WNW 17 43 9 23 1008.9 1008.9 0.0
28/08:30am 13.6 9.6 8.4 71 2.6 WNW 19 41 10 22 1008.7 - 0.0
28/08:00am 13.3 9.5 9.0 75 2.2 W 19 32 10 17 1008.8 - 0.0
28/07:30am 13.3 9.2 8.8 74 2.3 WNW 20 46 11 25 1009.4 - 0.0
28/07:00am 13.5 10.7 8.6 72 2.5 WNW 13 22 7 12 1009.8 - 0.0
28/06:30am 13.6 10.7 8.2 70 2.7 NW 13 28 7 15 1009.8 - 0.0
28/06:00am 13.5 10.2 8.1 70 2.7 NW 15 26 8 14 1009.4 1009.5 0.0
28/05:30am 13.6 9.3 7.8 68 2.9 NW 20 35 11 19 1009.6 - 0.0
28/05:00am 13.6 9.0 8.0 69 2.8 WNW 22 41 12 22 1009.8 - 0.0
28/04:30am 13.4 9.1 8.0 70 2.7 WNW 20 43 11 23 1010.1 - 0.0
28/04:00am 13.4 9.3 8.0 70 2.7 WNW 19 32 10 17 1010.3 - 0.0
28/03:30am 13.2 9.5 8.1 71 2.5 NW 17 32 9 17 1010.8 - 0.0
28/03:00am 13.1 9.4 8.0 71 2.5 NW 17 35 9 19 1011.1 1011.2 0.0
28/02:30am 13.6 9.5 7.8 68 2.9 NW 19 33 10 18 1011.7 - 0.0
28/02:00am 13.3 9.7 8.2 71 2.5 WNW 17 32 9 17 1011.9 - 0.0
28/01:30am 13.1 9.8 8.2 72 2.4 WNW 15 26 8 14 1012.1 - 0.0
28/01:00am 12.5 10.0 8.2 75 2.1 NNW 11 19 6 10 1012.4 - 0.0
28/12:30am 12.7 9.8 8.0 73 2.3 NNW 13 28 7 15 1012.9 - 0.0
28/12:00am 12.6 9.6 7.9 73 2.3 NNW 13 24 7 13 1013.1 1013.1 0.0
 
Date/Time
EST
Temp
°C
App
Temp
°C
Dew
Point
Rel
Hum
%
Delta-T
°C
Wind Press
QNH
hPa
Press
MSL
hPa
Rain
since 9 am
mm
Dir
 
Spd
km/h
Gust
km/h
Spd
kts
Gust
kts
27/11:30pm 12.5 10.4 8.2 75 2.1 N 9 13 5 7 1013.6 - 0.0
27/11:00pm 12.6 10.4 7.7 72 2.4 N 9 17 5 9 1013.8 - 0.0
27/10:30pm 12.7 9.6 7.4 70 2.6 NW 13 24 7 13 1014.1 - 0.0
27/10:00pm 12.7 9.3 7.6 71 2.5 WNW 15 26 8 14 1014.6 - 0.0
27/09:30pm 12.4 9.4 7.7 73 2.3 WNW 13 24 7 13 1014.6 - 0.0
27/09:00pm 11.4 8.8 7.9 79 1.7 WNW 11 19 6 10 1014.6 1014.7 0.0
27/08:30pm 11.4 8.0 7.7 78 1.8 N 15 20 8 11 1014.8 - 0.0
27/08:00pm 11.6 8.8 6.9 73 2.2 N 11 20 6 11 1015.1 - 0.0
27/07:30pm 11.9 8.7 7.0 72 2.4 NNW 13 19 7 10 1015.4 - 0.0
27/07:00pm 11.7 8.9 6.8 72 2.3 NNW 11 19 6 10 1015.7 - 0.0
27/06:30pm 11.6 8.8 6.9 73 2.2 NNW 11 20 6 11 1015.7 - 0.0
27/06:00pm 12.1 9.3 6.8 70 2.5 WNW 11 17 6 9 1015.6 1015.7 0.0
27/05:30pm 12.2 8.7 7.3 72 2.4 NW 15 30 8 16 1015.5 - 0.0
27/05:00pm 12.4 9.7 7.3 71 2.5 NNW 11 17 6 9 1015.4 - 0.0
27/04:30pm 12.9 9.7 6.9 67 2.9 NW 13 22 7 12 1015.2 - 0.0
27/04:00pm 13.1 10.7 7.1 67 2.9 NW 9 19 5 10 1015.6 - 0.0
27/03:30pm 13.5 10.2 6.6 63 3.3 WNW 13 22 7 12 1015.9 - 0.0
27/03:00pm 13.6 9.5 6.0 60 3.6 W 17 30 9 16 1016.2 1016.3 0.0
27/02:30pm 14.2 10.4 5.8 57 4.0 W 15 30 8 16 1016.0 - 0.0
27/02:00pm 14.3 11.8 6.6 60 3.7 W 9 22 5 12 1016.2 - 0.0
27/01:30pm 14.3 11.0 6.6 60 3.7 W 13 26 7 14 1016.5 - 0.0
27/01:00pm 14.6 11.4 6.7 59 3.8 WNW 13 20 7 11 1016.6 - 0.0
27/12:30pm 14.9 12.3 7.7 62 3.6 NW 11 19 6 10 1017.2 - 0.0
27/12:00pm 14.9 12.8 8.2 64 3.4 WNW 9 20 5 11 1017.8 1017.9 0.0
27/11:30am 13.8 12.2 8.6 71 2.6 W 7 15 4 8 1018.6 - 0.0
27/11:00am 13.0 11.0 8.7 75 2.2 NW 9 17 5 9 1019.3 - 0.0
27/10:30am 10.9 8.8 8.1 83 1.4 NNW 9 11 5 6 1019.7 - 0.0
27/10:00am 9.8 8.0 8.1 89 0.8 NW 7 11 4 6 1020.0 - 0.0
27/09:30am 8.2 6.2 7.3 94 0.4 N 7 9 4 5 1020.1 - 0.0
27/09:00am 6.6 4.0 6.3 98 0.1 NNW 9 13 5 7 1020.4 1020.5 0.2
27/08:30am 5.7 2.2 5.6 99 0.0 NNW 13 17 7 9 1020.5 - 0.2
27/08:00am 5.0 1.4 4.9 99 0.0 NNW 13 15 7 8 1020.4 - 0.2
27/07:30am 5.3 2.1 5.2 99 0.0 NW 11 13 6 7 1020.4 - 0.2
27/07:00am 5.0 1.4 4.9 99 0.0 NW 13 15 7 8 1020.6 - 0.2
27/06:30am 4.9 1.6 4.8 99 0.0 NW 11 15 6 8 1020.3 - 0.2
27/06:00am 5.3 1.7 5.2 99 0.0 NNW 13 17 7 9 1020.2 1020.3 0.0
27/05:30am 5.1 1.9 5.0 99 0.0 NW 11 15 6 8 1019.8 - 0.0
27/05:00am 5.2 1.6 5.1 99 0.0 NNW 13 17 7 9 1020.3 - 0.0
27/04:30am 5.4 1.9 5.3 99 0.0 NNW 13 17 7 9 1020.2 - 0.0
27/04:00am 5.7 1.9 5.6 99 0.0 NNW 15 20 8 11 1020.3 - 0.0
27/03:30am 5.9 2.5 5.8 99 0.0 NNW 13 15 7 8 1020.3 - 0.0
27/03:00am 6.5 3.2 6.4 99 0.0 NNW 13 15 7 8 1020.5 1020.6 0.0
27/02:30am 6.5 3.6 6.4 99 0.0 NW 11 15 6 8 1020.8 - 0.0
27/02:00am 6.7 4.6 6.6 99 0.0 NW 7 11 4 6 1020.8 - 0.0
27/01:30am 7.0 4.6 6.9 99 0.0 NW 9 13 5 7 1020.9 - 0.0
27/01:00am 7.4 4.3 7.3 99 0.0 NW 13 15 7 8 1021.1 - 0.0
27/12:30am 7.6 4.9 7.5 99 0.0 NW 11 13 6 7 1021.2 - 0.0
27/12:00am 7.8 5.2 7.7 99 0.0 NW 11 15 6 8 1021.2 1021.3 0.0
 
Date/Time
EST
Temp
°C
App
Temp
°C
Dew
Point
Rel
Hum
%
Delta-T
°C
Wind Press
QNH
hPa
Press
MSL
hPa
Rain
since 9 am
mm
Dir
 
Spd
km/h
Gust
km/h
Spd
kts
Gust
kts
26/11:30pm 8.0 5.4 7.9 99 0.0 NW 11 17 6 9 1021.3 - 0.0
26/11:00pm 8.1 5.6 8.0 99 0.0 NW 11 13 6 7 1021.2 - 0.0
26/10:30pm 7.9 4.9 7.6 98 0.1 NNW 13 15 7 8 1021.4 - 0.0
26/10:00pm 7.9 5.3 7.6 98 0.1 NNW 11 13 6 7 1021.2 - 0.0
26/09:30pm 8.9 6.5 8.5 97 0.2 NW 11 13 6 7 1021.0 - 0.0
26/09:00pm 9.2 7.7 8.6 96 0.3 N 6 7 3 4 1021.0 1021.1 0.0
26/08:30pm 9.6 9.3 8.8 95 0.4 CALM 0 0 0 0 1020.7 - 0.0
26/08:00pm 10.2 10.1 9.3 94 0.4 CALM 0 0 0 0 1020.5 - 0.0
26/07:30pm 10.9 10.9 9.8 93 0.6 CALM 0 0 0 0 1020.4 - 0.0
26/07:00pm 11.0 10.6 9.8 92 0.6 S 2 6 1 3 1020.5 - 0.0
26/06:30pm 10.8 10.7 9.6 92 0.6 CALM 0 4 0 2 1020.5 - 0.0
26/06:00pm 11.1 11.1 9.9 92 0.6 CALM 0 0 0 0 1020.1 1020.2 0.0
26/05:30pm 10.9 10.8 9.5 91 0.7 CALM 0 0 0 0 1019.9 - 0.0
26/05:00pm 11.1 10.9 9.2 88 1.0 CALM 0 0 0 0 1019.6 - 0.0

Other Formats:

Comma delimited format used in spreadsheet applications
http://www.bom.gov.au/fwo/IDT60801/IDT60801.95981.axf

JavaScript Object Notation format (JSON) in row-major order
http://www.bom.gov.au/fwo/IDT60801/IDT60801.95981.json